createdAt,value
2024-03-08T05:36:30.546Z,66.40
2024-03-08T05:38:57.169Z,72.93
2024-03-08T05:41:23.784Z,83.90
2024-03-08T05:43:50.455Z,72.27
2024-03-08T05:46:19.237Z,70.20
2024-03-08T05:48:45.922Z,66.47
2024-03-08T05:51:13.485Z,72.10
2024-03-08T05:53:40.146Z,68.70
2024-03-08T05:56:07.113Z,65.87
2024-03-08T05:58:33.761Z,68.27
2024-03-08T06:01:00.374Z,71.00
2024-03-08T06:03:27.372Z,81.40
2024-03-08T06:05:54.374Z,72.00
2024-03-08T06:08:21.020Z,74.87
2024-03-08T06:10:49.907Z,70.80
2024-03-08T06:13:16.593Z,71.63
2024-03-08T06:15:43.351Z,74.70
2024-03-08T06:18:12.802Z,70.17
2024-03-08T06:20:39.555Z,68.17
2024-03-08T06:23:06.234Z,67.40
2024-03-08T06:25:32.830Z,73.60
2024-03-08T06:27:59.441Z,71.30
2024-03-08T06:30:26.122Z,70.47
2024-03-08T06:32:52.874Z,71.87
2024-03-08T06:35:21.442Z,73.43
2024-03-08T06:37:48.195Z,71.37
2024-03-08T06:40:15.495Z,70.20
2024-03-08T06:42:42.772Z,78.13
2024-03-08T06:45:11.254Z,75.40
2024-03-08T06:47:38.299Z,73.70
2024-03-08T06:50:05.656Z,76.40
2024-03-08T06:52:32.311Z,81.27
2024-03-08T06:54:59.246Z,69.83
2024-03-08T06:57:25.999Z,67.20
2024-03-08T06:59:53.579Z,71.90
2024-03-08T07:02:20.382Z,71.07
2024-03-08T07:04:47.082Z,73.40
2024-03-08T07:07:13.691Z,70.27
2024-03-08T07:09:40.309Z,75.67
2024-03-08T07:12:07.683Z,75.13
2024-03-08T07:14:34.372Z,78.40
2024-03-08T07:17:03.252Z,72.10
2024-03-08T07:19:30.698Z,78.97
2024-03-08T07:21:57.287Z,76.83
2024-03-08T07:24:39.129Z,79.17
2024-03-08T07:27:08.925Z,72.60
2024-03-08T07:29:36.303Z,70.73
2024-03-08T07:32:21.077Z,75.43
2024-03-08T07:34:54.213Z,72.07
2024-03-08T07:37:21.727Z,77.20
2024-03-08T07:39:48.440Z,81.67
2024-03-08T07:42:15.032Z,78.30
2024-03-08T07:44:41.784Z,74.50
2024-03-08T07:47:10.620Z,74.43
2024-03-08T07:49:38.605Z,71.93
2024-03-08T07:52:05.809Z,68.20
2024-03-08T07:54:32.489Z,69.97
2024-03-08T07:56:59.189Z,64.80
2024-03-08T07:59:25.836Z,69.57
2024-03-08T08:01:52.533Z,75.30
2024-03-08T08:04:20.260Z,70.07
2024-03-08T08:06:46.978Z,66.90
2024-03-08T08:09:16.241Z,68.60
2024-03-08T08:11:44.452Z,80.77
2024-03-08T08:14:11.260Z,74.37
2024-03-08T08:16:38.659Z,71.93
2024-03-08T08:19:08.738Z,67.30
2024-03-08T08:21:37.951Z,71.23
2024-03-08T08:24:05.182Z,72.33
2024-03-08T08:26:33.166Z,65.53
2024-03-08T08:29:01.432Z,70.07
2024-03-08T08:31:28.252Z,66.80
2024-03-08T08:33:59.338Z,58.33
2024-03-08T08:36:26.097Z,66.10
2024-03-08T08:38:55.400Z,64.33
2024-03-08T08:41:22.924Z,66.17
2024-03-08T08:43:58.851Z,58.47
2024-03-08T08:46:30.653Z,69.67
2024-03-08T08:48:57.340Z,65.47
2024-03-08T08:51:24.377Z,64.73
2024-03-08T08:53:51.062Z,70.10
2024-03-08T08:56:18.607Z,59.57
2024-03-08T08:58:45.191Z,66.27
2024-03-08T09:01:12.638Z,61.87
2024-03-08T09:03:42.051Z,62.33
2024-03-08T09:06:11.691Z,58.40
2024-03-08T09:08:39.180Z,54.87
2024-03-08T09:13:35.517Z,61.10
2024-03-08T09:16:03.889Z,67.30
2024-03-08T09:18:30.524Z,65.50
2024-03-08T09:20:57.167Z,54.27
2024-03-08T09:23:23.856Z,55.57
2024-03-08T09:25:50.504Z,67.67
2024-03-08T09:28:17.537Z,59.83
2024-03-08T09:30:53.859Z,56.50
2024-03-08T09:33:23.925Z,54.97
2024-03-08T09:35:52.469Z,59.63
2024-03-08T09:38:19.161Z,60.30
2024-03-08T09:40:45.956Z,59.97
2024-03-08T09:43:13.026Z,60.37
2024-03-08T09:45:43.148Z,53.63
2024-03-08T09:48:13.228Z,61.97
2024-03-08T09:50:43.202Z,62.00
2024-03-08T09:53:10.514Z,66.20
2024-03-08T09:55:38.375Z,80.30
2024-03-08T09:58:25.836Z,59.30
2024-03-08T10:00:52.586Z,64.67
2024-03-08T10:03:20.828Z,59.40
2024-03-08T10:05:47.560Z,68.20
2024-03-08T10:08:14.669Z,62.33
2024-03-08T10:10:41.322Z,60.33
2024-03-08T10:13:08.270Z,54.43
2024-03-08T10:15:34.916Z,61.77
2024-03-08T10:18:03.254Z,59.77
2024-03-08T10:20:37.012Z,63.40
2024-03-08T10:23:11.474Z,65.80
2024-03-08T10:25:39.070Z,65.63
2024-03-08T10:28:06.254Z,68.13
2024-03-08T10:30:33.587Z,60.97
2024-03-08T10:33:00.370Z,64.27
2024-03-08T10:35:28.188Z,58.33
2024-03-08T10:38:00.696Z,60.80
2024-03-08T10:40:27.642Z,67.27
2024-03-08T10:42:58.049Z,71.43
2024-03-08T10:45:29.128Z,72.53
2024-03-08T10:48:20.338Z,65.53
2024-03-08T10:50:47.973Z,56.30
2024-03-08T10:53:14.931Z,60.70
2024-03-08T10:55:42.081Z,66.90
2024-03-08T10:58:08.992Z,61.07
2024-03-08T11:00:36.703Z,68.13
2024-03-08T11:03:04.453Z,76.03
2024-03-08T11:05:40.371Z,68.77
2024-03-08T11:08:20.585Z,58.93
2024-03-08T11:10:57.552Z,55.27
2024-03-08T11:13:36.905Z,61.40
2024-03-08T11:16:13.731Z,61.20
2024-03-08T11:18:40.957Z,62.57
2024-03-08T11:21:13.970Z,59.93
2024-03-08T11:23:41.226Z,56.70
2024-03-08T11:26:21.516Z,60.43
2024-03-08T11:28:48.588Z,61.40
2024-03-08T11:31:34.351Z,55.37
2024-03-08T11:34:00.949Z,67.23
2024-03-08T11:36:27.678Z,59.10
2024-03-08T11:38:55.299Z,54.63
2024-03-08T11:41:24.126Z,59.60
2024-03-08T11:43:51.658Z,59.37
2024-03-08T11:46:19.017Z,57.33
2024-03-08T11:48:47.918Z,67.00
2024-03-08T11:53:43.359Z,57.97
2024-03-08T11:56:12.697Z,60.37
2024-03-08T11:58:39.724Z,55.40
2024-03-08T12:01:18.269Z,55.97
2024-03-08T12:03:44.948Z,56.03
2024-03-08T12:06:11.960Z,55.10
2024-03-08T12:08:38.596Z,63.80
2024-03-08T12:11:05.627Z,61.10
2024-03-08T12:13:35.738Z,61.47
2024-03-08T12:16:05.627Z,61.50
2024-03-08T12:18:36.642Z,58.10
2024-03-08T12:21:08.754Z,56.30
2024-03-08T12:23:40.425Z,61.13
2024-03-08T12:26:17.802Z,65.17
2024-03-08T12:28:49.487Z,55.50
2024-03-08T12:31:18.421Z,59.43
2024-03-08T12:33:56.394Z,48.80
2024-03-08T12:36:24.184Z,58.50
2024-03-08T12:38:50.750Z,53.13
2024-03-08T12:41:20.454Z,56.30
2024-03-08T12:43:50.830Z,54.47
2024-03-08T12:46:27.316Z,59.50
2024-03-08T12:48:54.651Z,50.07
2024-03-08T12:51:22.026Z,55.83
2024-03-08T12:53:48.603Z,54.63
2024-03-08T12:56:21.873Z,54.10
2024-03-08T12:58:48.463Z,55.17
2024-03-08T13:01:16.302Z,53.27
2024-03-08T13:03:44.935Z,53.17
2024-03-08T13:06:11.556Z,54.77
2024-03-08T13:08:41.524Z,55.20
2024-03-08T13:11:15.313Z,54.70
2024-03-08T13:13:42.119Z,54.73
2024-03-08T13:16:09.823Z,52.43
2024-03-08T13:18:37.053Z,51.50
2024-03-08T13:21:07.377Z,47.40
2024-03-08T13:23:41.322Z,49.10
2024-03-08T13:26:17.629Z,52.37
2024-03-08T13:28:47.345Z,50.87
2024-03-08T13:31:15.972Z,50.30
2024-03-08T13:33:46.761Z,44.70
2024-03-08T13:36:17.131Z,50.43
2024-03-08T13:38:44.713Z,48.00
2024-03-08T13:41:13.101Z,47.50
2024-03-08T13:43:41.161Z,47.63
2024-03-08T13:46:08.265Z,50.30
2024-03-08T13:48:35.086Z,49.97
2024-03-08T13:51:01.792Z,51.27
2024-03-08T13:53:28.506Z,45.97
2024-03-08T13:55:55.754Z,53.57
2024-03-08T13:58:22.483Z,48.47
2024-03-08T14:00:49.161Z,52.90
2024-03-08T14:03:15.850Z,54.47
2024-03-08T14:05:43.832Z,49.20
2024-03-08T14:08:10.623Z,54.17
2024-03-08T14:10:40.161Z,51.20
2024-03-08T14:13:08.162Z,50.77
2024-03-08T14:15:39.633Z,52.23
2024-03-08T14:18:08.278Z,55.43
2024-03-08T14:20:35.041Z,53.97
2024-03-08T14:23:01.695Z,53.70
2024-03-08T14:25:31.242Z,51.77
2024-03-08T14:28:04.780Z,55.87
2024-03-08T14:30:35.959Z,50.70
2024-03-08T14:33:03.766Z,54.73
2024-03-08T14:35:30.626Z,55.87
2024-03-08T14:38:01.667Z,52.87
2024-03-08T14:40:28.562Z,50.30
2024-03-08T14:42:55.201Z,52.60
2024-03-08T14:45:21.984Z,54.30
2024-03-08T14:47:51.559Z,57.10
2024-03-08T14:50:22.112Z,52.43
2024-03-08T14:52:51.983Z,58.90
2024-03-08T14:55:20.962Z,51.10
2024-03-08T14:57:47.644Z,55.40
2024-03-08T15:00:18.135Z,50.97
2024-03-08T15:02:45.479Z,52.63
2024-03-08T15:05:14.984Z,50.93
2024-03-08T15:07:41.990Z,54.97
2024-03-08T15:10:12.143Z,50.27
2024-03-08T15:12:40.597Z,52.33
2024-03-08T15:15:11.087Z,49.90
2024-03-08T15:17:40.875Z,53.50
2024-03-08T15:20:16.184Z,50.37
2024-03-08T15:22:45.279Z,54.70
2024-03-08T15:25:21.523Z,54.50
2024-03-08T15:27:49.791Z,50.93
2024-03-08T15:30:17.890Z,49.63
2024-03-08T15:32:48.734Z,47.60
2024-03-08T15:35:17.740Z,51.80
2024-03-08T15:37:46.173Z,47.47
2024-03-08T15:40:24.979Z,44.60
2024-03-08T15:43:00.650Z,50.30
2024-03-08T15:45:37.926Z,54.70
2024-03-08T15:48:06.550Z,50.07
2024-03-08T15:50:36.292Z,47.27
2024-03-08T15:53:03.268Z,53.20
2024-03-08T15:55:30.778Z,52.70
2024-03-08T15:57:57.643Z,47.50
2024-03-08T16:00:42.964Z,45.10
2024-03-08T16:03:12.288Z,49.37
2024-03-08T16:05:45.530Z,53.43
2024-03-08T16:08:22.481Z,53.90
2024-03-08T16:10:51.131Z,49.90
2024-03-08T16:13:18.884Z,49.83
2024-03-08T16:15:47.616Z,47.07
2024-03-08T16:18:17.138Z,53.30
2024-03-08T16:20:44.709Z,53.00
2024-03-08T16:23:15.527Z,49.60
2024-03-08T16:25:45.297Z,52.23
2024-03-08T16:28:12.315Z,53.57
2024-03-08T16:30:40.871Z,54.20
2024-03-08T16:33:07.979Z,50.13
2024-03-08T16:35:37.057Z,52.27
2024-03-08T16:38:03.981Z,51.10
2024-03-08T16:40:30.817Z,53.23
2024-03-08T16:42:57.478Z,45.80
2024-03-08T16:45:24.390Z,54.13
2024-03-08T16:47:57.994Z,53.20
2024-03-08T16:50:24.719Z,49.77
2024-03-08T16:52:56.826Z,53.53
2024-03-08T16:55:25.750Z,53.97
2024-03-08T16:57:52.353Z,47.97
2024-03-08T17:00:23.219Z,58.13
2024-03-08T17:02:50.991Z,58.90
2024-03-08T17:05:17.796Z,51.20
2024-03-08T17:07:52.874Z,56.33
2024-03-08T17:10:20.681Z,56.47
2024-03-08T17:12:50.933Z,53.83
2024-03-08T17:15:22.926Z,52.90
2024-03-08T17:17:54.479Z,61.03
2024-03-08T17:20:21.834Z,50.53
2024-03-08T17:22:49.406Z,51.53
2024-03-08T17:25:16.476Z,59.03
2024-03-08T17:27:45.531Z,52.13
2024-03-08T17:30:20.961Z,66.17
2024-03-08T17:32:49.595Z,55.10
2024-03-08T17:35:19.814Z,50.07
2024-03-08T17:37:48.200Z,51.40
2024-03-08T17:40:19.131Z,49.13
2024-03-08T17:42:46.546Z,55.67
2024-03-08T17:45:14.578Z,54.20
2024-03-08T17:47:41.905Z,55.43
2024-03-08T17:50:11.298Z,53.40
2024-03-08T17:52:39.392Z,53.30
2024-03-08T17:55:10.354Z,56.57
2024-03-08T17:57:40.921Z,54.03
2024-03-08T18:00:13.752Z,49.20
2024-03-08T18:02:40.479Z,51.93
2024-03-08T18:05:08.567Z,51.57
2024-03-08T18:07:35.183Z,52.83
2024-03-08T18:10:02.540Z,48.73
2024-03-08T18:12:31.105Z,49.30
2024-03-08T18:14:59.271Z,51.37
2024-03-08T18:17:25.913Z,50.63
2024-03-08T18:19:52.896Z,48.20
2024-03-08T18:22:19.609Z,62.13
2024-03-08T18:24:47.278Z,52.50
2024-03-08T18:27:14.406Z,57.90
2024-03-08T18:29:41.141Z,51.13
2024-03-08T18:32:08.864Z,54.93
2024-03-08T18:34:37.420Z,72.10
2024-03-08T18:37:06.127Z,47.50
2024-03-08T18:39:32.748Z,49.13
2024-03-08T18:41:59.338Z,45.60
2024-03-08T18:44:25.900Z,49.17
2024-03-08T18:46:57.739Z,51.97
2024-03-08T18:49:24.426Z,55.93
2024-03-08T18:51:55.476Z,48.37
2024-03-08T18:54:22.189Z,51.17
2024-03-08T18:56:52.707Z,47.83
2024-03-08T18:59:19.380Z,55.83
2024-03-08T19:01:49.062Z,48.20
2024-03-08T19:04:16.004Z,47.10
2024-03-08T19:06:42.613Z,55.70
2024-03-08T19:09:11.524Z,60.93
2024-03-08T19:11:38.223Z,52.77
2024-03-08T19:14:04.891Z,50.73
2024-03-08T19:16:31.571Z,50.67
2024-03-08T19:18:58.181Z,49.43
2024-03-08T19:21:25.502Z,48.83
2024-03-08T19:23:52.406Z,53.23
2024-03-08T19:26:23.246Z,51.80
2024-03-08T19:28:50.009Z,54.20
2024-03-08T19:31:16.639Z,50.87
2024-03-08T19:33:43.210Z,49.47
2024-03-08T19:36:13.489Z,52.20
2024-03-08T19:38:41.610Z,49.80
2024-03-08T19:41:08.300Z,49.97
2024-03-08T19:43:34.962Z,48.70
2024-03-08T19:46:01.900Z,54.10
2024-03-08T19:48:28.978Z,54.07
2024-03-08T19:50:56.668Z,61.23
2024-03-08T19:53:23.793Z,53.33
2024-03-08T19:55:52.178Z,56.77
2024-03-08T19:58:19.998Z,52.30
2024-03-08T20:00:48.609Z,60.70
2024-03-08T20:03:22.079Z,57.87
2024-03-08T20:05:49.410Z,49.37
2024-03-08T20:08:16.281Z,55.50
2024-03-08T20:10:43.602Z,56.07
2024-03-08T20:13:10.720Z,58.27
2024-03-08T20:15:48.898Z,55.30
2024-03-08T20:18:16.200Z,50.10
2024-03-08T20:20:49.601Z,62.20
2024-03-08T20:23:17.629Z,49.97
2024-03-08T20:25:46.774Z,59.43
2024-03-08T20:28:13.896Z,53.47
2024-03-08T20:30:43.189Z,54.60
2024-03-08T20:33:10.108Z,56.90
2024-03-08T20:35:36.757Z,52.00
2024-03-08T20:38:21.230Z,52.87
2024-03-08T20:40:48.270Z,53.40
2024-03-08T20:43:19.465Z,59.30
2024-03-08T20:45:47.753Z,54.20
2024-03-08T20:48:15.300Z,53.97
2024-03-08T20:50:43.292Z,58.10
2024-03-08T20:53:12.209Z,58.87
2024-03-08T20:55:45.859Z,54.43
2024-03-08T20:58:12.876Z,61.07
2024-03-08T21:00:39.536Z,51.37
2024-03-08T21:03:08.643Z,56.63
2024-03-08T21:05:36.907Z,54.17
2024-03-08T21:08:06.937Z,60.53
2024-03-08T21:10:36.168Z,53.13
2024-03-08T21:13:03.486Z,58.13
2024-03-08T21:15:30.127Z,55.30
2024-03-08T21:17:56.937Z,59.97
2024-03-08T21:20:24.900Z,51.00
2024-03-08T21:22:51.945Z,61.00
2024-03-08T21:25:21.879Z,57.87
2024-03-08T21:27:48.602Z,60.73
2024-03-08T21:30:26.259Z,55.07
2024-03-08T21:32:53.673Z,57.37
2024-03-08T21:35:21.034Z,56.03
2024-03-08T21:37:48.861Z,61.60
2024-03-08T21:40:22.910Z,58.03
2024-03-08T21:42:50.669Z,58.67
2024-03-08T21:45:17.602Z,57.67
2024-03-08T21:47:44.377Z,58.73
2024-03-08T21:50:15.248Z,57.50
2024-03-08T21:52:45.430Z,58.67
2024-03-08T21:55:12.972Z,58.10
2024-03-08T21:57:39.597Z,60.63
2024-03-08T22:00:12.570Z,62.27
2024-03-08T22:02:43.480Z,61.60
2024-03-08T22:05:11.573Z,59.63
2024-03-08T22:07:38.289Z,61.33
2024-03-08T22:10:05.296Z,59.40
2024-03-08T22:12:32.502Z,63.33
2024-03-08T22:14:59.206Z,62.50
2024-03-08T22:17:26.281Z,53.00
2024-03-08T22:19:53.503Z,64.80
2024-03-08T22:22:20.832Z,64.47
2024-03-08T22:24:54.362Z,57.13
2024-03-08T22:27:22.203Z,67.10
2024-03-08T22:29:49.180Z,59.07
2024-03-08T22:32:16.363Z,59.67
2024-03-08T22:34:43.034Z,61.60
2024-03-08T22:37:15.104Z,74.93
2024-03-08T22:39:41.906Z,58.57
2024-03-08T22:42:08.531Z,55.80
2024-03-08T22:44:35.666Z,56.60
2024-03-08T22:47:04.712Z,55.47
2024-03-08T22:49:32.640Z,56.40
2024-03-08T22:52:00.799Z,60.53
2024-03-08T22:54:27.465Z,55.87
2024-03-08T22:56:54.124Z,61.07
2024-03-08T22:59:24.348Z,63.30
2024-03-08T23:01:53.620Z,57.97
2024-03-08T23:04:20.496Z,56.60
2024-03-08T23:06:47.080Z,58.13
2024-03-08T23:09:16.436Z,59.80
2024-03-08T23:11:44.354Z,55.40
2024-03-08T23:14:12.290Z,55.27
2024-03-08T23:16:39.474Z,59.97
2024-03-08T23:19:06.369Z,56.27
2024-03-08T23:21:32.994Z,57.03
2024-03-08T23:23:59.574Z,56.33
2024-03-08T23:26:28.971Z,55.70
2024-03-08T23:28:55.630Z,57.50
2024-03-08T23:31:22.832Z,56.43
2024-03-08T23:33:50.913Z,61.03
2024-03-08T23:36:17.778Z,58.73
2024-03-08T23:38:45.875Z,58.47
2024-03-08T23:41:12.661Z,56.20
2024-03-08T23:43:41.514Z,56.97
2024-03-08T23:46:08.194Z,61.30
2024-03-08T23:48:34.809Z,54.53
2024-03-08T23:51:01.412Z,57.83
2024-03-08T23:53:27.995Z,58.37
2024-03-08T23:55:56.212Z,62.47
2024-03-08T23:58:22.925Z,60.70
